FNBG/BUG METAR and TAF weather

Enter ICAO airport designator
Station Type Date Time Source
FNBG METAR 2019/12/05 14:00 UTC NOAA

FNBG 051400Z 32014KT 9999 FEW015 30/19 Q1009


Station Type Date Time Source
FNBG Decoded METAR 2019/12/05 14:00 UTC NOAA

Monbaca Benguela , Angola (FNBG) 12-35S 013-25E 4M
Dec 05, 2019 - 09:00 AM EST / 2019.12.05 1400 UTC
Wind: from the NW (320 degrees) at 16 MPH (14 KT):0
Visibility: greater than 7 mile(s):0
Sky conditions: mostly clear
Temperature: 86 F (30 C)
Dew Point: 66 F (19 C)
Relative Humidity: 51%
Pressure (altimeter): 29.80 in. Hg (1009 hPa)
ob: FNBG 051400Z 32014KT 9999 FEW015 30/19 Q1009
cycle: 14

Station Type Date Time Source
FNBG TAF 2019/12/05 12:45 UTC NOAA

TAF FNBG 051045Z 0512/0524 28012KT 9999 FEW015 BKN040
BECMG 0520/0522 20006KT 9000 BKN018

Example: see airport list